createdAt,value
2023-03-19T00:01:36.137Z,7.40
2023-03-19T00:04:06.291Z,7.60
2023-03-19T00:06:38.818Z,7.70
2023-03-19T00:09:09.131Z,7.80
2023-03-19T00:11:39.044Z,8.00
2023-03-19T00:14:09.395Z,7.80
2023-03-19T00:16:39.597Z,7.90
2023-03-19T00:21:42.358Z,8.00
2023-03-19T00:26:42.595Z,8.10
2023-03-19T00:31:43.562Z,8.00
2023-03-19T00:34:13.810Z,7.70
2023-03-19T00:36:46.515Z,7.70
2023-03-19T00:39:16.560Z,7.70
2023-03-19T00:41:50.550Z,7.60
2023-03-19T00:44:21.024Z,7.60
2023-03-19T00:51:54.973Z,7.50
2023-03-19T00:54:24.896Z,8.00
2023-03-19T00:56:54.787Z,7.80
2023-03-19T01:01:55.430Z,7.60
2023-03-19T01:04:25.929Z,7.50
2023-03-19T01:17:05.378Z,7.40
2023-03-19T01:19:35.712Z,6.90
2023-03-19T01:22:08.404Z,6.70
2023-03-19T01:24:39.972Z,6.60
2023-03-19T01:32:19.666Z,7.20
2023-03-19T01:35:10.884Z,6.50
2023-03-19T01:37:44.166Z,6.90
2023-03-19T01:40:17.065Z,6.90
2023-03-19T01:42:58.023Z,6.90
2023-03-19T01:45:52.608Z,6.90
2023-03-19T01:48:44.622Z,6.80
2023-03-19T01:51:20.675Z,6.90
2023-03-19T01:54:09.070Z,7.20
2023-03-19T01:57:09.928Z,6.80
2023-03-19T02:00:14.521Z,6.80
2023-03-19T02:02:50.320Z,6.90
2023-03-19T02:05:31.893Z,6.90
2023-03-19T02:08:11.942Z,6.80
2023-03-19T02:10:46.205Z,6.80
2023-03-19T02:18:18.583Z,6.70
2023-03-19T02:20:55.872Z,6.20
2023-03-19T02:23:35.466Z,6.70
2023-03-19T02:26:17.719Z,8.30
2023-03-19T02:28:51.581Z,6.50
2023-03-19T02:34:03.634Z,6.50
2023-03-19T02:36:37.627Z,6.50
2023-03-19T02:39:11.375Z,6.60
2023-03-19T02:41:45.303Z,6.50
2023-03-19T02:51:49.048Z,6.20
2023-03-19T02:56:52.830Z,6.40
2023-03-19T03:06:54.086Z,6.00
2023-03-19T03:11:57.234Z,6.20
2023-03-19T03:16:57.421Z,6.30
2023-03-19T03:27:00.823Z,6.10
2023-03-19T03:32:01.393Z,6.40
2023-03-19T03:34:31.258Z,5.70
2023-03-19T03:39:31.551Z,6.10
2023-03-19T03:42:04.019Z,6.30
2023-03-19T03:44:34.841Z,5.60
2023-03-19T03:52:05.460Z,5.90
2023-03-19T03:54:36.870Z,5.90
2023-03-19T03:57:09.622Z,5.90
2023-03-19T03:59:39.528Z,6.00
2023-03-19T04:02:09.448Z,6.10
2023-03-19T04:07:09.782Z,5.90
2023-03-19T04:09:46.329Z,5.80
2023-03-19T04:12:19.126Z,6.00
2023-03-19T04:17:21.541Z,6.40
2023-03-19T04:24:52.136Z,5.60
2023-03-19T04:27:24.786Z,5.90
2023-03-19T04:42:32.177Z,6.00
2023-03-19T04:45:11.373Z,6.20
2023-03-19T05:28:55.685Z,6.00
2023-03-19T05:47:14.938Z,5.90
2023-03-19T06:00:30.676Z,6.00
2023-03-19T06:26:37.416Z,6.20
2023-03-19T07:32:21.332Z,7.80
2023-03-19T08:02:45.504Z,8.30
2023-03-19T08:17:51.946Z,8.50
2023-03-19T08:22:53.399Z,8.60
2023-03-19T09:35:53.014Z,8.70
2023-03-19T09:41:07.953Z,8.80
2023-03-19T09:44:00.144Z,8.80
2023-03-19T09:46:36.660Z,8.80
2023-03-19T09:49:17.453Z,8.70
2023-03-19T09:51:52.877Z,8.70
2023-03-19T09:54:32.470Z,8.90
2023-03-19T10:02:27.020Z,8.80
2023-03-19T10:05:10.137Z,8.90
2023-03-19T10:07:54.184Z,8.90
2023-03-19T10:10:39.498Z,8.90
2023-03-19T10:13:19.500Z,8.90
2023-03-19T10:15:52.874Z,8.90
2023-03-19T10:18:27.181Z,8.90
2023-03-19T10:21:01.439Z,8.90
2023-03-19T10:23:44.671Z,8.90
2023-03-19T10:26:16.794Z,8.90
2023-03-19T10:28:49.351Z,8.90
2023-03-19T10:31:31.296Z,9.00
2023-03-19T10:34:22.963Z,8.90
2023-03-19T10:37:05.239Z,8.90
2023-03-19T10:42:41.694Z,8.90
2023-03-19T10:45:22.922Z,9.00
2023-03-19T10:50:26.101Z,9.10
2023-03-19T10:53:07.108Z,9.00
2023-03-19T10:58:09.819Z,9.00
2023-03-19T11:03:32.462Z,9.00
2023-03-19T11:06:18.907Z,9.20
2023-03-19T11:08:58.565Z,9.00
2023-03-19T11:11:37.468Z,9.00
2023-03-19T11:14:12.712Z,9.20
2023-03-19T11:17:02.768Z,9.60
2023-03-19T11:19:36.070Z,9.40
2023-03-19T11:22:21.060Z,9.50
2023-03-19T11:24:59.712Z,9.50
2023-03-19T11:27:31.656Z,9.70
2023-03-19T11:32:51.875Z,9.70
2023-03-19T11:35:25.796Z,9.80
2023-03-19T11:37:59.793Z,9.90
2023-03-19T11:40:41.262Z,10.00
2023-03-19T11:43:32.506Z,10.20
2023-03-19T11:46:10.551Z,10.60
2023-03-19T11:48:52.069Z,10.90
2023-03-19T11:51:26.703Z,11.30
2023-03-19T11:54:08.069Z,11.20
2023-03-19T11:56:47.536Z,11.60
2023-03-19T11:59:48.370Z,11.70
2023-03-19T12:02:47.320Z,12.30
2023-03-19T12:05:24.338Z,12.90
2023-03-19T12:08:08.190Z,13.20
2023-03-19T12:10:47.568Z,13.70
2023-03-19T12:13:32.226Z,14.00
2023-03-19T12:16:13.716Z,14.40
2023-03-19T12:18:59.796Z,14.50
2023-03-19T12:21:42.571Z,14.80
2023-03-19T12:24:20.211Z,15.20
2023-03-19T12:27:01.792Z,15.10
2023-03-19T12:29:44.327Z,15.60
2023-03-19T12:32:27.374Z,15.80
2023-03-19T12:35:01.145Z,15.60
2023-03-19T12:37:35.796Z,15.60
2023-03-19T12:40:18.166Z,15.70
2023-03-19T12:45:36.825Z,15.40
2023-03-19T12:48:13.118Z,15.20
2023-03-19T12:50:46.989Z,14.80
2023-03-19T12:53:25.473Z,14.40
2023-03-19T12:56:00.720Z,14.50
2023-03-19T12:58:41.854Z,14.10
2023-03-19T13:01:19.449Z,14.30
2023-03-19T13:03:56.962Z,14.30
2023-03-19T13:06:31.462Z,13.10
2023-03-19T13:09:07.948Z,13.90
2023-03-19T13:11:49.078Z,13.40
2023-03-19T13:14:25.605Z,13.20
2023-03-19T13:17:05.362Z,12.80
2023-03-19T13:19:40.817Z,13.60
2023-03-19T13:22:15.864Z,14.00
2023-03-19T13:24:47.524Z,14.60
2023-03-19T13:27:23.601Z,14.40
2023-03-19T13:30:04.064Z,14.10
2023-03-19T13:32:43.638Z,14.20
2023-03-19T13:35:40.753Z,15.00
2023-03-19T13:38:21.620Z,15.90
2023-03-19T13:40:53.343Z,16.70
2023-03-19T13:43:28.549Z,17.00
2023-03-19T13:46:08.283Z,17.00
2023-03-19T13:48:41.796Z,16.30
2023-03-19T13:51:27.988Z,15.60
2023-03-19T13:54:08.290Z,15.40
2023-03-19T13:57:01.040Z,15.10
2023-03-19T13:59:32.155Z,16.20
2023-03-19T14:02:03.151Z,16.70
2023-03-19T14:04:37.911Z,16.90
2023-03-19T14:07:15.278Z,16.50
2023-03-19T14:09:48.707Z,16.60
2023-03-19T14:12:27.962Z,16.70
2023-03-19T14:15:00.529Z,16.40
2023-03-19T14:17:34.262Z,16.10
2023-03-19T14:20:31.390Z,15.60
2023-03-19T14:23:36.226Z,15.40
2023-03-19T14:26:17.658Z,15.70
2023-03-19T14:29:03.615Z,15.40
2023-03-19T14:31:37.753Z,15.40
2023-03-19T14:34:28.962Z,15.40
2023-03-19T14:37:07.045Z,15.40
2023-03-19T14:39:43.257Z,15.60
2023-03-19T14:42:22.355Z,15.90
2023-03-19T14:45:25.223Z,15.70
2023-03-19T14:48:15.271Z,16.00
2023-03-19T14:51:03.302Z,16.10
2023-03-19T14:53:40.817Z,15.90
2023-03-19T14:56:17.909Z,15.70
2023-03-19T14:58:52.632Z,15.60
2023-03-19T15:01:24.810Z,15.20
2023-03-19T15:03:58.440Z,15.30
2023-03-19T15:06:32.487Z,15.30
2023-03-19T15:09:07.032Z,15.30
2023-03-19T15:12:13.177Z,15.00
2023-03-19T15:15:04.699Z,14.90
2023-03-19T15:17:38.784Z,14.80
2023-03-19T15:20:21.433Z,14.80
2023-03-19T15:22:57.472Z,14.40
2023-03-19T15:25:30.507Z,15.00
2023-03-19T15:28:13.730Z,14.80
2023-03-19T15:30:54.768Z,15.00
2023-03-19T15:33:41.514Z,15.00
2023-03-19T15:36:19.083Z,15.10
2023-03-19T15:38:52.611Z,14.90
2023-03-19T15:41:27.984Z,14.90
2023-03-19T15:43:58.602Z,15.10
2023-03-19T15:46:34.889Z,14.70
2023-03-19T15:49:08.518Z,14.60
2023-03-19T15:51:39.489Z,14.40
2023-03-19T15:54:10.073Z,14.40
2023-03-19T15:56:42.688Z,14.20
2023-03-19T15:59:13.447Z,14.10
2023-03-19T16:04:20.880Z,14.00
2023-03-19T16:06:51.413Z,14.00
2023-03-19T16:09:27.647Z,13.80
2023-03-19T16:12:00.313Z,13.80
2023-03-19T16:14:36.146Z,13.50
2023-03-19T16:17:14.222Z,13.70
2023-03-19T16:19:56.064Z,13.30
2023-03-19T16:22:31.226Z,13.20
2023-03-19T16:25:07.151Z,13.30
2023-03-19T16:27:41.596Z,13.10
2023-03-19T16:30:22.515Z,13.00
2023-03-19T16:33:01.749Z,12.90
2023-03-19T16:35:32.836Z,12.80
2023-03-19T16:38:14.820Z,12.50
2023-03-19T16:40:47.943Z,12.80
2023-03-19T16:43:22.772Z,12.50
2023-03-19T16:45:54.029Z,12.20
2023-03-19T16:48:23.861Z,12.10
2023-03-19T16:55:58.228Z,12.10
2023-03-19T16:58:36.094Z,11.90
2023-03-19T17:18:47.870Z,11.30
2023-03-19T17:21:21.365Z,11.10
2023-03-19T17:26:25.863Z,10.90
2023-03-19T17:28:59.524Z,10.80
2023-03-19T17:31:31.753Z,10.70
2023-03-19T17:34:05.938Z,10.60
2023-03-19T17:46:42.280Z,10.20
2023-03-19T17:49:19.732Z,10.20
2023-03-19T18:06:57.742Z,9.80
2023-03-19T18:09:32.758Z,9.80
2023-03-19T18:19:40.834Z,9.70
2023-03-19T18:22:16.050Z,9.70
2023-03-19T18:32:30.563Z,9.70
2023-03-19T18:37:32.795Z,9.70
2023-03-19T18:45:07.516Z,9.50
2023-03-19T18:50:19.662Z,9.60
2023-03-19T18:57:54.858Z,9.70
2023-03-19T19:00:30.991Z,9.80
2023-03-19T19:05:34.065Z,9.80
2023-03-19T19:08:05.537Z,9.70
2023-03-19T19:10:38.038Z,9.60
2023-03-19T19:13:16.793Z,9.50
2023-03-19T19:15:50.625Z,9.40
2023-03-19T19:18:22.855Z,9.30
2023-03-19T19:20:56.010Z,9.10
2023-03-19T19:28:31.505Z,9.00
2023-03-19T19:33:38.003Z,9.00
2023-03-19T19:36:15.717Z,8.80
2023-03-19T19:41:18.223Z,9.00
2023-03-19T19:51:25.097Z,9.00
2023-03-19T19:56:27.940Z,9.90
2023-03-19T19:58:59.013Z,8.90
2023-03-19T20:01:31.751Z,8.90
2023-03-19T20:31:43.513Z,8.40
2023-03-19T20:34:32.482Z,8.40
2023-03-19T20:47:17.671Z,8.30
2023-03-19T20:57:21.410Z,8.20
2023-03-19T21:10:22.903Z,8.00
2023-03-19T21:20:30.224Z,7.90
2023-03-19T21:23:05.483Z,7.80
2023-03-19T21:28:09.652Z,7.80
2023-03-19T21:30:44.318Z,7.80
2023-03-19T21:43:27.886Z,7.60
2023-03-19T21:48:33.503Z,7.60
2023-03-19T21:58:36.977Z,7.40
2023-03-19T22:01:10.695Z,7.40
2023-03-19T22:03:43.295Z,7.40
2023-03-19T22:11:20.158Z,7.30
2023-03-19T22:16:24.181Z,7.30
2023-03-19T22:18:57.743Z,7.30
2023-03-19T22:26:32.718Z,7.40
2023-03-19T22:29:05.695Z,7.30
2023-03-19T22:31:36.687Z,7.30
2023-03-19T22:41:45.518Z,7.40
2023-03-19T22:44:22.163Z,7.20
2023-03-19T22:56:56.843Z,8.00
2023-03-19T22:59:27.922Z,7.30
2023-03-19T23:01:58.142Z,7.00
2023-03-19T23:04:33.951Z,7.20
2023-03-19T23:07:04.103Z,7.60
2023-03-19T23:09:35.908Z,7.20
2023-03-19T23:14:38.061Z,7.10
2023-03-19T23:17:18.222Z,7.20
2023-03-19T23:19:51.236Z,7.20
2023-03-19T23:22:21.745Z,7.50
2023-03-19T23:27:26.345Z,7.20
2023-03-19T23:29:56.815Z,7.20
2023-03-19T23:32:26.778Z,7.00
2023-03-19T23:35:01.649Z,7.30
2023-03-19T23:37:32.764Z,7.20
2023-03-19T23:40:03.898Z,7.00
2023-03-19T23:42:34.875Z,7.10
2023-03-19T23:45:06.726Z,7.10
2023-03-19T23:47:37.625Z,7.30
2023-03-19T23:50:14.325Z,7.10
2023-03-19T23:55:15.363Z,7.30
2023-03-19T23:57:45.439Z,7.50
